Kahului, HI

7:38 AM HST on December 21, 2014 (GMT -1000)
Kahului | Change Station
CLOSE
Current Station
Airport
Location: Kahului,
Elevation: 49 ft
Nearby Weather Stations
Active Advisory: High Surf Warning Active Notice: Record Report

Elev 49 ft 20.90 °N, 156.43 °W | Updated 44 minutes ago

Scattered Clouds
Scattered Clouds
65 °F
Feels Like 65 °F
N
5
Wind Variable Wind from SSE

Today
High -- | Low -- °F
--% Chance of Precip.
Yesterday
High -- | Low -- °F
Precip. -- in
6:58 AM 5:49 PM
Waning Crescent, 0% visible
Pressure 30.05 in
Visibility 10.0 miles
Clouds Scattered Clouds 5000 ft
Dew Point 60 °F
Humidity 84%
Rainfall 0.00 in
Snow Depth Not available.
UV 0 out of 12
Pollen Not available.
Air Quality Not available.
Flu Activity Not available.
METAR PHOG 211654Z 15004KT 10SM SCT050 18/16 A3003 RMK AO2 SLP175 T01830156 $

More Conditions Fewer Conditions

Pressure 30.05 in
Visibility 10.0 miles
Clouds Scattered Clouds 5000 ft
Dew Point 60 °F
Humidity 84%
Rainfall 0.00 in
Snow Depth Not available.
UV 0 out of 12
Pollen Not available.
Air Quality Not available.
Flu Activity Not available.
METAR PHOG 211654Z 15004KT 10SM SCT050 18/16 A3003 RMK AO2 SLP175 T01830156 $

More Conditions Fewer Conditions

10-Day Weather Forecast

Almanac

Astronomy

Dec. 21, 2014 Rise Set
Actual Time
Civil Twilight
Nautical Twilight
Astronomical Twilight
Moon
Length of Visible Light
Length of Day
Tomorrow will be .
, % of the Moon is Illuminated

Today's Extremes

State Highs State Lows

Community

WunderPhotos

Upload Photos

1,779,431 photos uploaded!

WunderBlogs® & News

Nearby

Air Quality

  Air Quality AQ Index Pollutant
Not available.

Snow Depth

Station Depth Elevation

Earthquake Activity

City Distance Mag. Time & Date
Minimum magnitude displayed is 2.5.

Coastal Water Temperatures

Place Temperature

Nearby Weather Stations